createdAt,value
2023-05-03T00:01:11.411Z,91.20
2023-05-03T00:03:39.691Z,91.20
2023-05-03T00:06:14.330Z,91.30
2023-05-03T00:08:41.707Z,91.30
2023-05-03T00:11:09.386Z,91.30
2023-05-03T00:13:36.630Z,91.60
2023-05-03T00:16:03.888Z,91.40
2023-05-03T00:18:30.917Z,91.50
2023-05-03T00:20:59.738Z,91.40
2023-05-03T00:23:28.184Z,91.50
2023-05-03T00:25:58.613Z,91.60
2023-05-03T00:28:26.150Z,91.60
2023-05-03T00:30:53.371Z,91.70
2023-05-03T00:33:20.456Z,91.70
2023-05-03T00:35:47.598Z,91.80
2023-05-03T00:38:15.576Z,91.70
2023-05-03T00:40:43.287Z,91.80
2023-05-03T00:43:13.277Z,92.10
2023-05-03T00:45:40.431Z,91.90
2023-05-03T00:48:07.566Z,91.90
2023-05-03T00:50:35.653Z,91.90
2023-05-03T00:53:02.592Z,91.90
2023-05-03T00:55:31.655Z,91.90
2023-05-03T00:57:58.593Z,92.00
2023-05-03T01:00:25.700Z,92.00
2023-05-03T01:02:52.763Z,92.10
2023-05-03T01:05:20.261Z,92.10
2023-05-03T01:08:06.764Z,92.10
2023-05-03T01:11:07.432Z,92.20
2023-05-03T01:13:53.569Z,92.20
2023-05-03T01:16:41.273Z,92.20
2023-05-03T01:19:17.925Z,92.30
2023-05-03T01:21:45.030Z,92.30
2023-05-03T01:24:14.179Z,92.20
2023-05-03T01:26:41.330Z,92.30
2023-05-03T01:29:08.586Z,92.40
2023-05-03T01:31:44.831Z,92.50
2023-05-03T01:34:18.147Z,92.40
2023-05-03T01:36:45.301Z,92.50
2023-05-03T01:39:41.082Z,92.50
2023-05-03T01:42:08.199Z,92.60
2023-05-03T01:44:35.108Z,92.60
2023-05-03T01:47:02.031Z,92.60
2023-05-03T01:49:29.417Z,92.70
2023-05-03T01:51:56.734Z,92.70
2023-05-03T01:54:23.772Z,92.60
2023-05-03T01:56:50.837Z,92.70
2023-05-03T01:59:17.910Z,92.80
2023-05-03T02:01:44.846Z,92.80
2023-05-03T02:04:12.101Z,92.80
2023-05-03T02:06:39.104Z,92.90
2023-05-03T02:09:06.009Z,92.90
2023-05-03T02:11:33.042Z,93.00
2023-05-03T02:13:59.976Z,93.00
2023-05-03T02:16:27.762Z,93.00
2023-05-03T02:18:56.027Z,93.00
2023-05-03T02:21:23.062Z,93.00
2023-05-03T02:23:50.016Z,93.10
2023-05-03T02:26:17.125Z,93.20
2023-05-03T02:28:44.237Z,93.20
2023-05-03T02:31:11.422Z,93.20
2023-05-03T02:33:38.425Z,93.30
2023-05-03T02:36:05.866Z,93.30
2023-05-03T02:38:33.423Z,93.30
2023-05-03T02:41:00.357Z,93.30
2023-05-03T02:43:27.491Z,93.40
2023-05-03T02:45:54.539Z,93.40
2023-05-03T02:48:21.624Z,93.40
2023-05-03T02:50:48.769Z,93.50
2023-05-03T02:53:16.016Z,93.50
2023-05-03T02:55:43.480Z,93.50
2023-05-03T02:58:10.502Z,93.60
2023-05-03T03:00:37.496Z,93.60
2023-05-03T03:03:04.649Z,93.60
2023-05-03T03:05:31.656Z,93.60
2023-05-03T03:07:58.492Z,93.60
2023-05-03T03:10:25.455Z,93.70
2023-05-03T03:12:52.388Z,93.80
2023-05-03T03:15:19.334Z,93.70
2023-05-03T03:17:46.780Z,93.70
2023-05-03T03:20:13.813Z,93.80
2023-05-03T03:22:40.941Z,93.80
2023-05-03T03:25:08.569Z,93.80
2023-05-03T03:27:37.462Z,93.80
2023-05-03T03:30:08.287Z,93.90
2023-05-03T03:32:35.544Z,94.00
2023-05-03T03:35:02.662Z,94.00
2023-05-03T03:37:29.631Z,94.00
2023-05-03T03:39:57.375Z,94.00
2023-05-03T03:42:25.869Z,94.00
2023-05-03T03:44:53.066Z,94.00
2023-05-03T03:47:20.225Z,94.00
2023-05-03T03:49:48.973Z,94.10
2023-05-03T03:52:15.918Z,94.10
2023-05-03T03:54:42.912Z,94.10
2023-05-03T03:57:10.224Z,94.10
2023-05-03T03:59:39.762Z,94.20
2023-05-03T04:02:06.755Z,94.20
2023-05-03T04:04:33.771Z,94.20
2023-05-03T04:07:00.655Z,94.30
2023-05-03T04:09:27.493Z,94.20
2023-05-03T04:11:54.962Z,94.20
2023-05-03T04:14:21.982Z,94.20
2023-05-03T04:16:49.228Z,94.30
2023-05-03T04:19:17.311Z,94.30
2023-05-03T04:21:44.756Z,94.30
2023-05-03T04:24:15.821Z,94.30
2023-05-03T04:26:43.168Z,94.40
2023-05-03T04:29:13.420Z,94.40
2023-05-03T04:31:40.322Z,94.40
2023-05-03T04:34:07.913Z,94.40
2023-05-03T04:36:35.860Z,94.50
2023-05-03T04:39:03.128Z,94.60
2023-05-03T04:41:30.237Z,94.60
2023-05-03T04:43:57.320Z,94.60
2023-05-03T04:46:24.474Z,94.60
2023-05-03T04:48:51.743Z,94.60
2023-05-03T04:51:18.957Z,94.70
2023-05-03T04:53:46.532Z,94.70
2023-05-03T04:56:13.497Z,94.60
2023-05-03T04:58:40.659Z,94.40
2023-05-03T05:01:07.705Z,94.70
2023-05-03T05:03:34.900Z,94.70
2023-05-03T05:06:01.984Z,94.80
2023-05-03T05:08:28.949Z,94.80
2023-05-03T05:10:56.187Z,94.80
2023-05-03T05:13:23.106Z,94.80
2023-05-03T05:15:50.056Z,94.90
2023-05-03T05:18:17.369Z,94.90
2023-05-03T05:20:44.492Z,94.90
2023-05-03T05:23:12.976Z,94.90
2023-05-03T05:25:39.930Z,95.00
2023-05-03T05:28:06.914Z,95.00
2023-05-03T05:30:34.188Z,95.00
2023-05-03T05:33:03.380Z,95.00
2023-05-03T05:35:30.506Z,95.00
2023-05-03T05:37:57.624Z,95.00
2023-05-03T05:40:24.791Z,95.00
2023-05-03T05:42:51.883Z,95.10
2023-05-03T05:45:18.889Z,95.10
2023-05-03T05:47:46.278Z,95.10
2023-05-03T05:50:18.263Z,95.10
2023-05-03T05:52:46.719Z,95.10
2023-05-03T05:55:15.034Z,95.10
2023-05-03T05:57:42.009Z,95.10
2023-05-03T06:00:14.855Z,95.20
2023-05-03T06:02:42.479Z,95.10
2023-05-03T06:05:10.301Z,95.10
2023-05-03T06:07:37.421Z,95.20
2023-05-03T06:10:05.261Z,95.10
2023-05-03T06:12:32.311Z,95.10
2023-05-03T06:15:02.774Z,95.10
2023-05-03T06:17:30.322Z,95.20
2023-05-03T06:19:57.916Z,95.20
2023-05-03T06:22:25.524Z,95.20
2023-05-03T06:24:52.935Z,95.10
2023-05-03T06:27:19.926Z,95.10
2023-05-03T06:29:48.123Z,95.10
2023-05-03T06:32:14.943Z,95.10
2023-05-03T06:34:41.708Z,95.10
2023-05-03T06:37:08.658Z,95.00
2023-05-03T06:39:35.449Z,95.00
2023-05-03T06:42:02.779Z,95.00
2023-05-03T06:44:29.686Z,94.90
2023-05-03T06:46:56.615Z,94.90
2023-05-03T06:49:23.726Z,94.90
2023-05-03T06:51:52.513Z,94.80
2023-05-03T06:54:20.300Z,94.80
2023-05-03T06:56:47.069Z,94.70
2023-05-03T06:59:14.154Z,94.60
2023-05-03T07:01:41.124Z,94.60
2023-05-03T07:04:08.143Z,94.60
2023-05-03T07:06:48.207Z,94.50
2023-05-03T07:09:28.671Z,94.40
2023-05-03T07:12:05.723Z,94.40
2023-05-03T07:14:32.984Z,94.40
2023-05-03T07:16:59.959Z,94.20
2023-05-03T07:19:26.769Z,94.10
2023-05-03T07:21:53.633Z,94.10
2023-05-03T07:24:20.515Z,94.00
2023-05-03T07:26:48.927Z,94.00
2023-05-03T07:29:16.219Z,93.90
2023-05-03T07:31:44.786Z,93.80
2023-05-03T07:34:11.627Z,93.80
2023-05-03T07:36:39.268Z,93.70
2023-05-03T07:39:06.371Z,93.60
2023-05-03T07:41:33.253Z,93.60
2023-05-03T07:44:00.285Z,93.50
2023-05-03T07:46:27.347Z,93.70
2023-05-03T07:48:54.285Z,93.40
2023-05-03T07:51:21.190Z,93.30
2023-05-03T07:53:48.001Z,93.20
2023-05-03T07:56:14.813Z,93.20
2023-05-03T07:58:42.571Z,93.10
2023-05-03T08:01:10.691Z,93.20
2023-05-03T08:03:38.492Z,92.90
2023-05-03T08:06:05.620Z,92.80
2023-05-03T08:08:36.564Z,92.70
2023-05-03T08:11:03.514Z,92.60
2023-05-03T08:13:30.332Z,92.60
2023-05-03T08:15:57.191Z,92.60
2023-05-03T08:18:24.698Z,92.50
2023-05-03T08:20:51.624Z,92.40
2023-05-03T08:23:19.332Z,92.30
2023-05-03T08:25:46.070Z,92.20
2023-05-03T08:28:13.014Z,92.20
2023-05-03T08:30:40.672Z,92.10
2023-05-03T08:33:10.104Z,92.00
2023-05-03T08:35:37.075Z,91.90
2023-05-03T08:38:05.138Z,91.80
2023-05-03T08:40:37.269Z,91.60
2023-05-03T08:43:10.667Z,91.50
2023-05-03T08:45:37.558Z,91.30
2023-05-03T08:48:04.948Z,91.20
2023-05-03T08:50:32.176Z,91.10
2023-05-03T08:52:59.609Z,91.00
2023-05-03T08:55:26.334Z,90.80
2023-05-03T08:57:53.181Z,90.70
2023-05-03T09:00:20.855Z,90.60
2023-05-03T09:02:47.981Z,90.40
2023-05-03T09:05:15.634Z,90.30
2023-05-03T09:08:04.876Z,90.20
2023-05-03T09:10:32.498Z,90.00
2023-05-03T09:13:01.316Z,90.00
2023-05-03T09:15:31.452Z,89.80
2023-05-03T09:18:08.800Z,89.50
2023-05-03T09:20:36.932Z,89.00
2023-05-03T09:23:04.063Z,89.10
2023-05-03T09:25:44.561Z,88.90
2023-05-03T09:28:11.914Z,88.10
2023-05-03T09:30:38.795Z,88.20
2023-05-03T09:33:06.012Z,88.00
2023-05-03T09:35:32.808Z,87.80
2023-05-03T09:38:00.244Z,87.60
2023-05-03T09:40:28.036Z,87.20
2023-05-03T09:43:06.702Z,86.60
2023-05-03T09:45:34.485Z,86.10
2023-05-03T09:48:03.168Z,86.00
2023-05-03T09:50:32.017Z,85.60
2023-05-03T09:53:01.579Z,85.20
2023-05-03T09:55:29.008Z,84.80
2023-05-03T09:57:55.970Z,84.70
2023-05-03T10:00:25.330Z,84.60
2023-05-03T10:02:54.489Z,84.50
2023-05-03T10:05:22.128Z,83.90
2023-05-03T10:07:53.545Z,83.70
2023-05-03T10:10:21.346Z,83.00
2023-05-03T10:12:48.189Z,82.70
2023-05-03T10:15:15.149Z,82.50
2023-05-03T10:17:47.276Z,82.30
2023-05-03T10:20:35.660Z,82.00
2023-05-03T10:23:05.906Z,81.30
2023-05-03T10:25:33.145Z,81.10
2023-05-03T10:28:09.756Z,80.90
2023-05-03T10:30:38.030Z,80.50
2023-05-03T10:33:14.225Z,80.50
2023-05-03T10:35:52.417Z,80.20
2023-05-03T10:38:26.724Z,80.20
2023-05-03T10:40:55.190Z,80.30
2023-05-03T10:43:31.521Z,80.60
2023-05-03T10:46:01.916Z,80.60
2023-05-03T10:48:29.222Z,80.30
2023-05-03T10:50:56.697Z,80.20
2023-05-03T10:53:35.496Z,80.30
2023-05-03T10:56:08.360Z,80.30
2023-05-03T10:58:42.153Z,80.40
2023-05-03T11:01:10.373Z,80.40
2023-05-03T11:03:43.785Z,80.00
2023-05-03T11:06:10.628Z,79.30
2023-05-03T11:08:38.053Z,79.20
2023-05-03T11:11:09.934Z,79.30
2023-05-03T11:13:37.271Z,79.40
2023-05-03T11:16:05.780Z,79.40
2023-05-03T11:18:32.775Z,79.40
2023-05-03T11:20:59.706Z,79.40
2023-05-03T11:23:28.648Z,79.20
2023-05-03T11:25:57.764Z,78.90
2023-05-03T11:28:25.871Z,78.50
2023-05-03T11:30:53.227Z,78.30
2023-05-03T11:33:20.024Z,78.20
2023-05-03T11:35:47.120Z,77.90
2023-05-03T11:38:14.064Z,77.40
2023-05-03T11:40:41.822Z,77.40
2023-05-03T11:43:08.693Z,77.10
2023-05-03T11:45:44.147Z,77.20
2023-05-03T11:48:12.100Z,75.80
2023-05-03T11:50:47.965Z,75.90
2023-05-03T11:53:15.446Z,76.00
2023-05-03T11:55:43.395Z,75.90
2023-05-03T11:58:23.578Z,76.40
2023-05-03T12:00:51.040Z,75.70
2023-05-03T12:03:19.872Z,75.80
2023-05-03T12:05:48.760Z,75.60
2023-05-03T12:08:21.053Z,75.00
2023-05-03T12:10:54.459Z,74.70
2023-05-03T12:13:34.555Z,74.30
2023-05-03T12:16:11.882Z,73.70
2023-05-03T12:19:05.482Z,74.00
2023-05-03T12:21:54.275Z,73.60
2023-05-03T12:24:28.910Z,74.40
2023-05-03T12:26:57.515Z,74.80
2023-05-03T12:29:24.899Z,74.10
2023-05-03T12:31:52.752Z,73.80
2023-05-03T12:34:34.037Z,73.30
2023-05-03T12:37:04.863Z,72.90
2023-05-03T12:39:33.056Z,72.50
2023-05-03T12:44:34.370Z,71.70
2023-05-03T12:47:02.364Z,71.50
2023-05-03T12:49:29.504Z,71.40
2023-05-03T12:52:34.749Z,71.00
2023-05-03T12:55:02.752Z,70.70
2023-05-03T12:57:32.391Z,70.40
2023-05-03T13:00:04.856Z,70.40
2023-05-03T13:05:02.145Z,70.00
2023-05-03T13:07:32.273Z,69.70
2023-05-03T13:12:32.533Z,68.90
2023-05-03T13:14:59.925Z,68.80
2023-05-03T13:17:26.823Z,68.60
2023-05-03T13:19:53.716Z,68.40
2023-05-03T13:22:20.834Z,68.00
2023-05-03T13:24:48.139Z,67.80
2023-05-03T13:27:15.745Z,67.60
2023-05-03T13:29:42.698Z,67.40
2023-05-03T13:32:09.853Z,67.10
2023-05-03T13:34:36.952Z,66.90
2023-05-03T13:37:04.617Z,66.80
2023-05-03T13:39:32.145Z,66.80
2023-05-03T13:41:59.133Z,66.40
2023-05-03T13:44:26.267Z,66.80
2023-05-03T13:46:53.651Z,65.90
2023-05-03T13:49:20.947Z,65.70
2023-05-03T13:51:48.284Z,65.70
2023-05-03T13:54:15.531Z,65.60
2023-05-03T13:56:43.185Z,64.80
2023-05-03T13:59:12.196Z,64.30
2023-05-03T14:01:39.574Z,64.30
2023-05-03T14:04:06.670Z,64.10
2023-05-03T14:06:34.068Z,63.80
2023-05-03T14:09:02.257Z,63.50
2023-05-03T14:11:30.473Z,63.20
2023-05-03T14:13:58.545Z,63.00
2023-05-03T14:16:40.042Z,63.00
2023-05-03T14:19:10.753Z,62.60
2023-05-03T14:21:38.536Z,62.30
2023-05-03T14:24:06.747Z,61.80
2023-05-03T14:26:34.400Z,61.40
2023-05-03T14:29:01.491Z,61.10
2023-05-03T14:31:28.711Z,60.90
2023-05-03T14:33:55.776Z,60.60
2023-05-03T14:36:23.246Z,60.50
2023-05-03T14:38:50.200Z,60.30
2023-05-03T14:41:17.169Z,60.40
2023-05-03T14:43:43.955Z,60.30
2023-05-03T14:46:11.086Z,60.20
2023-05-03T14:48:38.466Z,60.00
2023-05-03T14:51:05.710Z,59.70
2023-05-03T14:53:33.285Z,59.30
2023-05-03T14:56:00.187Z,59.20
2023-05-03T14:58:43.420Z,58.90
2023-05-03T15:01:18.446Z,58.60
2023-05-03T15:03:45.689Z,58.40
2023-05-03T15:06:12.494Z,58.70
2023-05-03T15:08:39.617Z,58.40
2023-05-03T15:11:07.826Z,58.10
2023-05-03T15:13:34.941Z,58.20
2023-05-03T15:16:02.090Z,58.10
2023-05-03T15:18:29.260Z,57.90
2023-05-03T15:20:56.522Z,57.80
2023-05-03T15:23:23.421Z,58.20
2023-05-03T15:25:50.256Z,57.50
2023-05-03T15:28:17.368Z,57.50
2023-05-03T15:30:44.194Z,57.60
2023-05-03T15:33:12.144Z,57.80
2023-05-03T15:35:55.269Z,57.60
2023-05-03T15:38:22.316Z,57.70
2023-05-03T15:40:49.673Z,58.20
2023-05-03T15:43:21.950Z,58.20
2023-05-03T15:45:49.186Z,58.30
2023-05-03T15:48:16.209Z,58.60
2023-05-03T15:50:43.177Z,58.80
2023-05-03T15:53:10.144Z,59.30
2023-05-03T15:55:37.200Z,59.60
2023-05-03T15:58:04.117Z,59.70
2023-05-03T16:00:33.772Z,60.10
2023-05-03T16:03:00.739Z,60.20
2023-05-03T16:05:28.078Z,60.60
2023-05-03T16:07:55.386Z,60.70
2023-05-03T16:10:24.743Z,60.90
2023-05-03T16:12:52.160Z,61.10
2023-05-03T16:15:19.298Z,61.20
2023-05-03T16:17:46.219Z,61.10
2023-05-03T16:20:13.249Z,61.10
2023-05-03T16:22:40.549Z,61.10
2023-05-03T16:25:08.354Z,60.90
2023-05-03T16:27:35.359Z,61.00
2023-05-03T16:30:03.286Z,61.00
2023-05-03T16:32:30.554Z,61.10
2023-05-03T16:34:57.580Z,61.30
2023-05-03T16:37:24.676Z,61.30
2023-05-03T16:39:51.658Z,61.20
2023-05-03T16:42:22.056Z,61.20
2023-05-03T16:44:48.921Z,61.20
2023-05-03T16:47:16.090Z,61.20
2023-05-03T16:49:45.473Z,61.30
2023-05-03T16:52:12.383Z,61.60
2023-05-03T16:54:40.408Z,61.90
2023-05-03T16:57:07.317Z,62.00
2023-05-03T16:59:34.179Z,62.00
2023-05-03T17:02:01.478Z,62.30
2023-05-03T17:04:29.450Z,62.80
2023-05-03T17:06:56.461Z,63.10
2023-05-03T17:09:23.417Z,63.30
2023-05-03T17:11:50.261Z,63.70
2023-05-03T17:14:17.043Z,63.80
2023-05-03T17:16:48.889Z,63.90
2023-05-03T17:19:16.011Z,64.20
2023-05-03T17:21:43.191Z,64.40
2023-05-03T17:24:10.965Z,64.60
2023-05-03T17:26:39.547Z,64.80
2023-05-03T17:29:07.859Z,65.10
2023-05-03T17:31:34.805Z,65.30
2023-05-03T17:34:01.654Z,65.60
2023-05-03T17:36:29.387Z,66.10
2023-05-03T17:38:56.338Z,66.60
2023-05-03T17:41:23.460Z,67.00
2023-05-03T17:43:51.499Z,67.40
2023-05-03T17:46:20.294Z,67.80
2023-05-03T17:48:48.580Z,68.20
2023-05-03T17:51:15.563Z,68.50
2023-05-03T17:53:43.442Z,68.80
2023-05-03T17:56:17.429Z,69.10
2023-05-03T17:58:44.795Z,69.20
2023-05-03T18:01:13.435Z,69.20
2023-05-03T18:03:41.885Z,69.50
2023-05-03T18:06:10.907Z,69.80
2023-05-03T18:08:37.765Z,70.10
2023-05-03T18:11:07.475Z,70.20
2023-05-03T18:13:34.558Z,70.40
2023-05-03T18:16:01.530Z,70.50
2023-05-03T18:18:28.535Z,70.70
2023-05-03T18:21:03.480Z,70.80
2023-05-03T18:23:31.271Z,71.00
2023-05-03T18:25:58.185Z,71.00
2023-05-03T18:28:25.454Z,71.10
2023-05-03T18:31:01.383Z,71.30
2023-05-03T18:33:28.142Z,71.40
2023-05-03T18:35:55.242Z,71.70
2023-05-03T18:38:22.250Z,71.90
2023-05-03T18:40:49.465Z,72.00
2023-05-03T18:43:16.458Z,72.20
2023-05-03T18:45:46.591Z,72.50
2023-05-03T18:48:14.072Z,72.80
2023-05-03T18:50:44.292Z,72.90
2023-05-03T18:53:11.393Z,73.10
2023-05-03T18:55:38.327Z,73.80
2023-05-03T18:58:05.511Z,73.40
2023-05-03T19:00:32.640Z,73.70
2023-05-03T19:02:59.979Z,73.90
2023-05-03T19:05:27.419Z,74.10
2023-05-03T19:07:54.980Z,74.40
2023-05-03T19:10:22.066Z,74.70
2023-05-03T19:12:49.353Z,75.00
2023-05-03T19:15:19.595Z,75.20
2023-05-03T19:17:48.182Z,75.60
2023-05-03T19:20:17.918Z,75.80
2023-05-03T19:22:45.097Z,76.10
2023-05-03T19:25:12.305Z,76.30
2023-05-03T19:27:40.415Z,76.60
2023-05-03T19:30:07.994Z,76.80
2023-05-03T19:32:40.699Z,77.00
2023-05-03T19:35:11.452Z,77.40
2023-05-03T19:37:38.500Z,77.50
2023-05-03T19:40:07.386Z,77.70
2023-05-03T19:42:34.486Z,78.00
2023-05-03T19:45:03.763Z,78.20
2023-05-03T19:47:30.640Z,78.50
2023-05-03T19:49:57.883Z,78.80
2023-05-03T19:52:25.044Z,79.00
2023-05-03T19:54:52.286Z,79.20
2023-05-03T19:57:19.657Z,79.60
2023-05-03T19:59:48.151Z,79.80
2023-05-03T20:02:15.078Z,80.00
2023-05-03T20:04:44.843Z,80.20
2023-05-03T20:07:16.433Z,80.40
2023-05-03T20:09:44.052Z,80.60
2023-05-03T20:12:12.088Z,80.90
2023-05-03T20:14:39.207Z,81.10
2023-05-03T20:17:07.343Z,81.40
2023-05-03T20:19:34.444Z,81.50
2023-05-03T20:22:04.844Z,82.30
2023-05-03T20:24:31.781Z,82.10
2023-05-03T20:26:59.169Z,82.80
2023-05-03T20:29:26.286Z,82.40
2023-05-03T20:31:56.241Z,82.60
2023-05-03T20:34:23.506Z,82.80
2023-05-03T20:36:51.865Z,83.00
2023-05-03T20:39:19.477Z,83.30
2023-05-03T20:41:46.670Z,83.40
2023-05-03T20:44:16.654Z,83.60
2023-05-03T20:46:43.815Z,83.80
2023-05-03T20:49:12.805Z,83.90
2023-05-03T20:51:39.840Z,84.10
2023-05-03T20:54:07.083Z,84.30
2023-05-03T20:56:34.087Z,84.50
2023-05-03T20:59:01.136Z,84.60
2023-05-03T21:01:28.248Z,84.80
2023-05-03T21:03:58.555Z,85.00
2023-05-03T21:06:27.352Z,85.10
2023-05-03T21:08:54.524Z,85.20
2023-05-03T21:11:21.433Z,85.40
2023-05-03T21:13:48.317Z,85.50
2023-05-03T21:16:15.260Z,85.70
2023-05-03T21:18:42.114Z,85.90
2023-05-03T21:21:09.213Z,86.00
2023-05-03T21:23:36.283Z,86.20
2023-05-03T21:26:03.782Z,86.30
2023-05-03T21:28:32.466Z,86.50
2023-05-03T21:31:00.018Z,86.60
2023-05-03T21:33:29.639Z,86.80
2023-05-03T21:35:56.596Z,86.90
2023-05-03T21:38:23.529Z,87.00
2023-05-03T21:40:50.443Z,87.20
2023-05-03T21:43:17.593Z,87.30
2023-05-03T21:45:48.563Z,87.50
2023-05-03T21:48:15.503Z,87.70
2023-05-03T21:50:42.809Z,87.70
2023-05-03T21:53:09.767Z,88.50
2023-05-03T21:55:36.573Z,88.00
2023-05-03T21:58:03.431Z,88.00
2023-05-03T22:00:31.835Z,88.30
2023-05-03T22:02:59.239Z,88.40
2023-05-03T22:05:27.009Z,88.50
2023-05-03T22:07:53.834Z,88.60
2023-05-03T22:10:20.794Z,88.90
2023-05-03T22:12:47.909Z,89.00
2023-05-03T22:15:14.847Z,89.00
2023-05-03T22:17:41.834Z,89.20
2023-05-03T22:20:10.674Z,89.30
2023-05-03T22:22:37.667Z,89.40
2023-05-03T22:25:05.190Z,89.50
2023-05-03T22:27:31.981Z,89.70
2023-05-03T22:29:58.918Z,89.90
2023-05-03T22:32:25.750Z,89.90
2023-05-03T22:34:52.686Z,90.00
2023-05-03T22:37:19.769Z,90.00
2023-05-03T22:39:46.900Z,90.10
2023-05-03T22:42:14.007Z,90.10
2023-05-03T22:44:40.928Z,90.20
2023-05-03T22:47:08.368Z,90.30
2023-05-03T22:49:35.771Z,90.30
2023-05-03T22:52:04.284Z,90.30
2023-05-03T22:54:31.356Z,90.40
2023-05-03T22:56:58.684Z,90.50
2023-05-03T22:59:28.959Z,90.50
2023-05-03T23:01:56.003Z,90.60
2023-05-03T23:04:22.993Z,90.60
2023-05-03T23:06:52.122Z,90.70
2023-05-03T23:09:19.249Z,90.70
2023-05-03T23:11:49.559Z,90.70
2023-05-03T23:14:16.534Z,90.80
2023-05-03T23:16:43.620Z,90.90
2023-05-03T23:19:10.624Z,90.90
2023-05-03T23:21:37.895Z,91.00
2023-05-03T23:24:05.323Z,91.00
2023-05-03T23:26:32.194Z,91.00
2023-05-03T23:28:59.600Z,91.10
2023-05-03T23:31:27.080Z,91.10
2023-05-03T23:33:55.073Z,91.20
2023-05-03T23:36:21.925Z,91.30
2023-05-03T23:38:50.354Z,91.30
2023-05-03T23:41:17.563Z,91.30
2023-05-03T23:43:44.612Z,91.40
2023-05-03T23:46:12.211Z,91.50
2023-05-03T23:48:39.317Z,91.50
2023-05-03T23:51:06.221Z,91.50
2023-05-03T23:53:33.320Z,91.60
2023-05-03T23:56:00.262Z,91.70
2023-05-03T23:58:27.439Z,91.70
